Friday, November 28, 2014, 3:21 AM EST

KJYO, Leesburg / Godfrey

Location: Leesburg, VA, United States Lat: 39.083
Local Time: 3:21 AM EST ( 8:21 GMT) Lon: -77.567
Time Zone: US/Eastern Elev: 390 ft

Show me the last for .
Show Decoded

2014-11-28 02:55 METAR KJYO 280755Z AUTO 31006KT 10SM CLR 00/M03 A3021 RMK AO2 =
2014-11-28 02:35 METAR KJYO 280735Z AUTO 29005KT 10SM CLR 00/M03 A3021 RMK AO2 =
2014-11-28 02:15 METAR KJYO 280715Z AUTO 31007G16KT 10SM CLR 00/M03 A3021 RMK AO2 =
2014-11-28 01:55 METAR KJYO 280655Z AUTO 31011G14KT 10SM SCT045 00/M02 A3021 RMK AO2 =
2014-11-28 01:35 METAR KJYO 280635Z AUTO 31007KT 10SM SCT045 01/M03 A3021 RMK AO2 =
2014-11-28 01:15 METAR KJYO 280615Z AUTO 30009KT 10SM CLR 00/M03 A3021 RMK AO2 =
2014-11-28 00:55 METAR KJYO 280555Z AUTO 30010G15KT 10SM CLR 01/M03 A3020 RMK AO2 =
2014-11-28 00:35 METAR KJYO 280535Z AUTO 31011G14KT 10SM CLR 01/M02 A3020 RMK AO2 =
2014-11-28 00:15 METAR KJYO 280515Z AUTO 31009KT 10SM CLR 01/M02 A3020 RMK AO2 =
2014-11-27 23:55 METAR KJYO 280455Z AUTO 31013G17KT 10SM CLR 01/M02 A3020 RMK AO2 =
2014-11-27 23:35 METAR KJYO 280435Z AUTO 30013G22KT 10SM CLR 02/M02 A3020 RMK AO2 =
2014-11-27 23:15 METAR KJYO 280415Z AUTO 31015G21KT 10SM CLR 02/M01 A3019 RMK AO2 =
2014-11-27 22:55 METAR KJYO 280355Z AUTO 31010G16KT 10SM SCT090 02/00 A3018 RMK AO2 =
2014-11-27 22:35 METAR KJYO 280335Z AUTO 30006KT 10SM BKN090 02/00 A3018 RMK AO2 =
2014-11-27 22:15 METAR KJYO 280315Z AUTO 30004KT 10SM SCT034 SCT042 BKN090 02/00 A3018 RMK AO2 =
2014-11-27 21:55 METAR KJYO 280255Z AUTO 31007KT 10SM BKN034 OVC044 03/00 A3018 RMK AO2 =
2014-11-27 21:35 METAR KJYO 280235Z AUTO 29005KT 10SM SCT037 OVC047 03/00 A3018 RMK AO2 =
2014-11-27 21:15 METAR KJYO 280215Z AUTO 30009G15KT 10SM OVC041 03/00 A3017 RMK AO2 =
2014-11-27 20:55 METAR KJYO 280155Z AUTO 29004KT 10SM BKN043 BKN075 OVC085 02/00 A3016 RMK AO2 =
2014-11-27 20:35 METAR KJYO 280135Z AUTO 29003KT 10SM BKN065 BKN075 BKN085 03/00 A3016 RMK AO2 =
2014-11-27 20:15 METAR KJYO 280115Z AUTO 32005KT 10SM SCT060 OVC065 03/00 A3015 RMK AO2 =
2014-11-27 19:55 METAR KJYO 280055Z AUTO 31003KT 10SM SCT047 OVC070 03/00 A3015 RMK AO2 =
2014-11-27 19:35 METAR KJYO 280035Z AUTO 30007KT 10SM SCT047 BKN055 OVC075 03/00 A3015 RMK AO2 =
2014-11-27 19:15 METAR KJYO 280015Z AUTO 30008KT 10SM SCT047 BKN070 OVC080 03/00 A3014 RMK AO2 =
2014-11-27 18:55 METAR KJYO 272355Z AUTO 30009KT 10SM SCT045 OVC070 03/00 A3013 RMK AO2 =
2014-11-27 17:55 METAR KJYO 272255Z AUTO 31006KT 10SM SCT060 02/00 A3012 RMK AO2 =
2014-11-27 17:35 METAR KJYO 272235Z AUTO 30006KT 10SM SCT060 02/00 A3011 RMK AO2 =
2014-11-27 17:15 METAR KJYO 272215Z AUTO 30005KT 10SM SCT060 02/00 A3011 RMK AO2 =
2014-11-27 16:55 METAR KJYO 272155Z AUTO 28006KT 10SM SCT060 03/00 A3010 RMK AO2 =
2014-11-27 16:35 METAR KJYO 272135Z AUTO 29006KT 10SM OVC060 03/00 A3009 RMK AO2 =
2014-11-27 16:15 METAR KJYO 272115Z AUTO 30008KT 10SM BKN060 OVC070 04/00 A3008 RMK AO2 =
2014-11-27 15:55 METAR KJYO 272055Z AUTO 30014G21KT 10SM SCT032 BKN060 OVC070 04/00 A3008 RMK AO2
                 =
2014-11-27 15:35 METAR KJYO 272035Z AUTO 35011KT 10SM -RA OVC030 05/01 A3008 RMK AO2 =
2014-11-27 15:15 METAR KJYO 272015Z AUTO 36010KT 10SM BKN030 BKN038 OVC070 06/01 A3007 RMK AO2 =
2014-11-27 14:55 METAR KJYO 271955Z AUTO 28007KT 10SM SCT046 OVC070 05/01 A3006 RMK AO2 =
2014-11-27 14:35 METAR KJYO 271935Z AUTO 30008KT 10SM OVC070 06/00 A3006 RMK AO2 =
2014-11-27 14:15 METAR KJYO 271915Z AUTO 30007KT 10SM OVC060 06/00 A3006 RMK AO2 =
2014-11-27 13:55 METAR KJYO 271855Z AUTO 32009KT 10SM BKN060 06/00 A3005 RMK AO2 =
2014-11-27 13:35 METAR KJYO 271835Z AUTO 31009G15KT 10SM SCT039 BKN060 06/00 A3005 RMK AO2 =
2014-11-27 13:15 METAR KJYO 271815Z AUTO 32008KT 10SM SCT039 BKN070 06/00 A3005 RMK AO2 =
2014-11-27 12:55 METAR KJYO 271755Z AUTO 32011KT 10SM SCT070 06/00 A3005 RMK AO2 =
2014-11-27 12:35 METAR KJYO 271735Z AUTO 35010KT 10SM SCT030 SCT070 06/01 A3005 RMK AO2 =
2014-11-27 12:15 METAR KJYO 271715Z AUTO 34010KT 10SM BKN028 BKN033 06/01 A3005 RMK AO2 =
2014-11-27 11:55 METAR KJYO 271655Z AUTO 33008KT 10SM SCT024 BKN030 06/01 A3005 RMK AO2 P0001 =
2014-11-27 11:35 METAR KJYO 271635Z AUTO 34004KT 10SM SCT024 SCT065 05/02 A3006 RMK AO2 P0001 =
2014-11-27 11:15 METAR KJYO 271615Z AUTO 32005KT 10SM SCT017 BKN022 OVC070 05/03 A3006 RMK AO2
                 P0001 =
2014-11-27 10:55 METAR KJYO 271555Z AUTO 10SM SCT018 BKN024 BKN060 04/03 A3006 RMK AO2 P0002 =
2014-11-27 10:35 METAR KJYO 271535Z AUTO 10SM SCT016 SCT060 04/02 A3006 RMK AO2 P0002 =
2014-11-27 10:15 METAR KJYO 271515Z AUTO 32004KT 10SM SCT016 SCT060 OVC065 04/02 A3007 RMK AO2
                 P0001 =
2014-11-27 09:55 METAR KJYO 271455Z AUTO 34003KT 10SM OVC060 04/02 A3006 RMK AO2 P0006 =
2014-11-27 09:35 METAR KJYO 271435Z AUTO 00000KT 10SM OVC060 04/03 A3006 RMK AO2 P0004 =
2014-11-27 09:15 METAR KJYO 271415Z AUTO 00000KT 10SM BKN060 03/02 A3006 RMK AO2 P0002 =
2014-11-27 08:55 METAR KJYO 271355Z AUTO 00000KT 10SM SCT033 SCT060 03/02 A3006 RMK AO2 P0002 =
2014-11-27 08:35 METAR KJYO 271335Z AUTO 00000KT 10SM SCT033 SCT050 02/02 A3005 RMK AO2 P0001 =
2014-11-27 08:15 METAR KJYO 271315Z AUTO 00000KT 5SM BR CLR 01/01 A3005 RMK AO2 =
2014-11-27 07:55 METAR KJYO 271255Z AUTO 01003KT 10SM CLR 02/02 A3004 RMK AO2 =
2014-11-27 07:15 METAR KJYO 271215Z AUTO 01004KT 10SM SCT050 OVC060 02/02 A3003 RMK AO2 =
2014-11-27 06:55 METAR KJYO 271155Z AUTO 01003KT 10SM BKN048 OVC065 02/02 A3003 RMK AO2 =
2014-11-27 06:35 METAR KJYO 271135Z AUTO 00000KT 10SM SCT033 BKN048 OVC065 02/02 A3003 RMK AO2 =
2014-11-27 06:15 METAR KJYO 271115Z AUTO 00000KT 10SM SCT020 BKN031 OVC035 02/02 A3003 RMK AO2 =
2014-11-27 05:55 METAR KJYO 271055Z AUTO 00000KT 10SM BKN031 OVC070 02/02 A3003 RMK AO2 =
2014-11-27 05:35 METAR KJYO 271035Z AUTO 00000KT 10SM SCT026 BKN055 OVC070 02/02 A3002 RMK AO2 =
2014-11-27 05:15 METAR KJYO 271015Z AUTO 00000KT 10SM BKN026 OVC055 02/02 A3002 RMK AO2 =
2014-11-27 04:55 METAR KJYO 270955Z AUTO 30004KT 10SM OVC026 02/02 A3002 RMK AO2 =
2014-11-27 04:35 METAR KJYO 270935Z AUTO 00000KT 7SM OVC026 01/01 A3002 RMK AO2 =
2014-11-27 04:15 METAR KJYO 270915Z AUTO 29003KT 10SM OVC026 01/01 A3001 RMK AO2 =
2014-11-27 03:55 METAR KJYO 270855Z AUTO 26003KT 7SM OVC026 01/01 A3001 RMK AO2 P0001 =

Support USWX by starting your Amazon purchase here.